Time;durP1;ratioP1;P1;durP2;ratioP2;P2;SDS_P1;SDS_P2;PMS_P1;PMS_P2;Temp;Humidity;BMP_temperature;BMP_pressure;BME280_temperature;BME280_humidity;BME280_pressure;Samples;Min_cycle;Max_cycle;Signal;HPM_P1;HPM_P2
2024/03/22 00:02:46;;;;;;;48.23;31.60;;;;;12.40;101677.00;;;;9986699;29;20273;-82
2024/03/22 00:07:48;;;;;;;41.80;28.87;;;;;12.40;101672.00;;;;9971183;29;20233;-82
2024/03/22 00:12:49;;;;;;;42.47;26.97;;;;;12.50;101665.00;;;;9956448;29;20241;-82
2024/03/22 00:17:50;;;;;;;40.67;27.13;;;;;12.50;101662.00;;;;9962401;29;20230;-81
2024/03/22 00:22:51;;;;;;;39.47;25.53;;;;;12.50;101652.00;;;;9969716;29;20256;-82
2024/03/22 00:27:53;;;;;;;35.47;23.83;;;;;12.50;101654.00;;;;9994503;29;20230;-82
2024/03/22 00:32:54;;;;;;;32.17;23.00;;;;;12.50;101658.00;;;;9959712;29;20592;-78
2024/03/22 00:37:55;;;;;;;32.87;22.20;;;;;12.50;101652.00;;;;9976272;29;20277;-78
2024/03/22 00:42:56;;;;;;;30.90;20.73;;;;;12.50;101654.00;;;;9947425;29;20229;-78
2024/03/22 00:47:57;;;;;;;36.87;22.30;;;;;12.50;101648.00;;;;9977696;29;20253;-78
2024/03/22 00:52:59;;;;;;;31.40;22.90;;;;;12.40;101646.00;;;;9938190;29;20240;-79
2024/03/22 00:58:00;;;;;;;36.10;24.30;;;;;12.40;101633.00;;;;9959684;29;20313;-78
2024/03/22 01:03:01;;;;;;;34.23;23.67;;;;;12.30;101628.00;;;;9960991;29;20241;-78
2024/03/22 01:08:03;;;;;;;37.13;24.60;;;;;12.20;101613.00;;;;9949095;29;20222;-79
2024/03/22 01:13:04;;;;;;;38.17;25.53;;;;;12.20;101616.00;;;;9984103;29;20233;-78
2024/03/22 01:18:05;;;;;;;36.80;24.63;;;;;12.10;101593.00;;;;9960204;29;20325;-80
2024/03/22 01:23:06;;;;;;;33.70;23.67;;;;;12.00;101584.00;;;;9969632;29;20337;-79
2024/03/22 01:28:07;;;;;;;38.03;24.53;;;;;11.90;101585.00;;;;9984612;29;20276;-79
2024/03/22 01:33:08;;;;;;;35.37;24.50;;;;;11.70;101585.00;;;;9954665;29;20233;-81
2024/03/22 01:38:10;;;;;;;36.40;24.43;;;;;11.70;101581.00;;;;9975957;29;20684;-83
2024/03/22 01:43:11;;;;;;;36.67;25.33;;;;;11.60;101575.00;;;;9939533;29;20230;-81
2024/03/22 01:48:12;;;;;;;38.63;26.03;;;;;11.60;101577.00;;;;9946743;29;20312;-81
2024/03/22 01:53:13;;;;;;;36.20;24.70;;;;;11.40;101578.00;;;;9969406;29;20236;-81
2024/03/22 01:58:15;;;;;;;42.70;26.40;;;;;11.30;101577.00;;;;9958760;29;20321;-82
2024/03/22 02:03:16;;;;;;;41.70;27.17;;;;;11.30;101559.00;;;;9966089;29;20233;-81
2024/03/22 02:08:17;;;;;;;37.90;24.27;;;;;11.30;101550.00;;;;9967834;29;20638;-82
2024/03/22 02:13:18;;;;;;;34.63;23.90;;;;;11.20;101548.00;;;;9982662;29;20320;-81
2024/03/22 02:18:19;;;;;;;40.47;22.90;;;;;11.20;101546.00;;;;9980610;29;20241;-81
2024/03/22 02:23:40;;;;;;;36.63;23.67;;;;;11.20;101525.00;;;;9966546;29;20863;-82
2024/03/22 02:28:41;;;;;;;35.07;22.73;;;;;11.30;101528.00;;;;9980207;29;20798;-81
2024/03/22 02:33:42;;;;;;;35.60;22.73;;;;;11.40;101531.00;;;;9959265;29;21079;-81
2024/03/22 02:38:43;;;;;;;33.77;22.07;;;;;11.40;101520.00;;;;9952280;29;20308;-81
2024/03/22 02:43:45;;;;;;;34.53;22.20;;;;;11.50;101517.00;;;;9971815;29;20719;-81
2024/03/22 02:48:46;;;;;;;35.83;23.50;;;;;11.50;101502.00;;;;9960644;29;20308;-81
2024/03/22 02:53:48;;;;;;;36.07;22.07;;;;;11.50;101507.00;;;;9967390;29;20226;-81
2024/03/22 02:58:49;;;;;;;34.73;22.27;;;;;11.50;101498.00;;;;9945195;29;20265;-81
2024/03/22 03:03:50;;;;;;;34.43;22.00;;;;;11.40;101499.00;;;;9936958;29;20389;-81
2024/03/22 03:08:52;;;;;;;31.97;21.47;;;;;11.40;101492.00;;;;9944496;29;20260;-81
2024/03/22 03:13:53;;;;;;;29.83;20.60;;;;;11.40;101504.00;;;;9980366;29;20308;-81
2024/03/22 03:18:54;;;;;;;31.50;20.67;;;;;11.40;101494.00;;;;9961885;29;20313;-82
2024/03/22 03:23:55;;;;;;;31.17;20.87;;;;;11.40;101485.00;;;;9963537;29;20296;-81
2024/03/22 03:28:56;;;;;;;31.43;20.80;;;;;11.40;101490.00;;;;9969002;29;20339;-82
2024/03/22 03:33:57;;;;;;;33.57;20.93;;;;;11.30;101472.00;;;;9972397;29;20662;-82
2024/03/22 03:38:58;;;;;;;33.17;20.07;;;;;11.30;101467.00;;;;9951619;29;20233;-83
2024/03/22 03:44:01;;;;;;;31.03;19.90;;;;;11.30;101466.00;;;;9966825;29;20229;-82
2024/03/22 03:49:02;;;;;;;31.20;20.73;;;;;11.30;101447.00;;;;9962747;29;20954;-83
2024/03/22 03:54:04;;;;;;;34.33;20.87;;;;;11.20;101440.00;;;;9971648;29;20257;-81
2024/03/22 03:59:05;;;;;;;29.93;19.10;;;;;11.20;101441.00;;;;10006814;29;20304;-82
2024/03/22 04:04:06;;;;;;;30.43;18.40;;;;;11.20;101435.00;;;;9957176;29;20225;-83
2024/03/22 04:09:07;;;;;;;27.53;18.00;;;;;11.20;101425.00;;;;9975030;29;20324;-82
2024/03/22 04:14:08;;;;;;;29.67;17.63;;;;;11.20;101425.00;;;;9974987;29;20888;-83
2024/03/22 04:19:09;;;;;;;28.40;17.47;;;;;11.20;101420.00;;;;9948903;29;20226;-84
2024/03/22 04:24:10;;;;;;;30.77;17.90;;;;;11.20;101431.00;;;;9950892;29;20232;-83
2024/03/22 04:29:11;;;;;;;25.77;16.00;;;;;11.10;101423.00;;;;9951078;29;20867;-82
2024/03/22 04:34:12;;;;;;;23.80;15.77;;;;;11.10;101419.00;;;;9965546;29;20241;-83
2024/03/22 04:39:16;;;;;;;24.10;15.87;;;;;11.10;101412.00;;;;9973086;29;20273;-82
2024/03/22 04:44:17;;;;;;;24.70;16.20;;;;;11.10;101405.00;;;;9940572;29;20880;-81
2024/03/22 04:49:18;;;;;;;30.73;16.67;;;;;11.10;101413.00;;;;9963158;29;20233;-82
2024/03/22 04:54:20;;;;;;;23.83;14.73;;;;;11.10;101422.00;;;;9962451;29;20236;-82
2024/03/22 04:59:21;;;;;;;27.57;16.37;;;;;11.10;101415.00;;;;9964292;29;20811;-83
2024/03/22 05:04:22;;;;;;;25.47;16.33;;;;;11.10;101413.00;;;;9977378;29;20772;-83
2024/03/22 05:09:23;;;;;;;26.00;15.20;;;;;11.10;101408.00;;;;9999713;29;20230;-82
2024/03/22 05:14:24;;;;;;;27.57;14.97;;;;;11.00;101402.00;;;;9960553;29;20234;-82
2024/03/22 05:19:26;;;;;;;23.70;15.03;;;;;10.90;101401.00;;;;9979967;29;20257;-81
2024/03/22 05:24:27;;;;;;;23.83;15.57;;;;;10.90;101399.00;;;;9972253;29;20623;-80
2024/03/22 05:29:28;;;;;;;24.90;16.20;;;;;10.80;101393.00;;;;9943988;29;20252;-79
2024/03/22 05:34:29;;;;;;;26.87;16.93;;;;;10.80;101399.00;;;;9984806;29;20241;-80
2024/03/22 05:39:31;;;;;;;28.27;16.83;;;;;10.80;101399.00;;;;9969489;29;20230;-80
2024/03/22 05:44:32;;;;;;;30.97;17.83;;;;;10.70;101389.00;;;;9965040;29;20294;-81
2024/03/22 05:49:33;;;;;;;31.23;17.43;;;;;10.70;101390.00;;;;9948712;29;20254;-81
2024/03/22 05:54:35;;;;;;;27.13;18.07;;;;;10.70;101389.00;;;;9964551;29;20248;-80
2024/03/22 05:59:36;;;;;;;25.03;16.07;;;;;10.70;101388.00;;;;9968873;29;20767;-80
2024/03/22 06:04:38;;;;;;;25.17;16.37;;;;;10.70;101392.00;;;;9952243;29;20240;-80
2024/03/22 06:09:48;;;;;;;23.57;15.27;;;;;10.80;101392.00;;;;9954802;29;20237;-80
2024/03/22 06:14:50;;;;;;;28.47;17.07;;;;;10.80;101392.00;;;;9997892;29;20313;-80
2024/03/22 06:19:51;;;;;;;24.80;16.20;;;;;10.80;101382.00;;;;9975623;29;20966;-80
2024/03/22 06:24:53;;;;;;;26.17;17.30;;;;;10.90;101375.00;;;;9958662;29;20237;-80
2024/03/22 06:29:54;;;;;;;28.23;17.77;;;;;10.90;101379.00;;;;9952387;29;21023;-78
2024/03/22 06:34:55;;;;;;;25.10;17.00;;;;;10.90;101393.00;;;;9962696;29;20275;-80
2024/03/22 06:39:58;;;;;;;27.30;17.60;;;;;11.00;101378.00;;;;9971076;29;20313;-79
2024/03/22 06:44:59;;;;;;;26.13;16.83;;;;;11.00;101386.00;;;;9968675;29;20688;-80
2024/03/22 06:50:01;;;;;;;26.00;17.07;;;;;11.00;101381.00;;;;9966413;29;20588;-79
2024/03/22 06:55:03;;;;;;;22.83;15.17;;;;;11.20;101372.00;;;;9969069;29;20294;-78
2024/03/22 07:00:05;;;;;;;22.77;14.47;;;;;11.30;101383.00;;;;9949136;29;20257;-78
2024/03/22 07:05:07;;;;;;;23.67;14.47;;;;;11.30;101378.00;;;;9963126;29;20240;-80
2024/03/22 07:10:09;;;;;;;22.37;14.83;;;;;11.20;101387.00;;;;9963301;29;20235;-79
2024/03/22 07:15:10;;;;;;;21.30;14.30;;;;;11.20;101373.00;;;;9977108;29;20672;-78
2024/03/22 07:20:11;;;;;;;23.73;14.63;;;;;11.20;101375.00;;;;9949369;29;20248;-79
2024/03/22 07:25:13;;;;;;;23.43;15.00;;;;;11.30;101373.00;;;;9963837;29;20603;-80
2024/03/22 07:30:14;;;;;;;21.40;12.90;;;;;11.50;101369.00;;;;9953879;29;20233;-79
2024/03/22 07:35:15;;;;;;;20.10;12.40;;;;;11.60;101371.00;;;;9954182;29;20592;-79
2024/03/22 07:40:16;;;;;;;22.07;13.20;;;;;11.50;101362.00;;;;9962841;29;20234;-82
2024/03/22 07:45:18;;;;;;;19.40;11.33;;;;;11.60;101368.00;;;;9938318;29;20261;-83
2024/03/22 07:50:19;;;;;;;17.50;12.13;;;;;11.80;101348.00;;;;9993298;29;20312;-81
2024/03/22 07:55:20;;;;;;;23.67;11.90;;;;;12.00;101359.00;;;;9958337;29;20234;-83
2024/03/22 08:00:21;;;;;;;19.37;13.53;;;;;12.10;101355.00;;;;9970397;29;20691;-82
2024/03/22 08:05:22;;;;;;;18.07;12.87;;;;;12.30;101351.00;;;;9989412;29;20232;-82
2024/03/22 08:10:23;;;;;;;16.33;11.10;;;;;12.20;101360.00;;;;9967026;29;20237;-83
2024/03/22 08:15:24;;;;;;;16.73;10.77;;;;;12.30;101352.00;;;;9944332;29;20233;-83
2024/03/22 08:20:28;;;;;;;16.63;9.93;;;;;12.40;101361.00;;;;9952906;29;20252;-83
2024/03/22 08:25:30;;;;;;;12.43;9.40;;;;;12.40;101344.00;;;;9965769;29;20829;-82
2024/03/22 08:30:31;;;;;;;13.10;9.83;;;;;12.60;101343.00;;;;9965217;29;20311;-82
2024/03/22 08:35:32;;;;;;;18.07;9.83;;;;;12.60;101350.00;;;;10003631;29;20302;-83
2024/03/22 08:40:33;;;;;;;15.00;10.27;;;;;12.90;101339.00;;;;9951710;29;20324;-82
2024/03/22 08:45:35;;;;;;;15.20;10.40;;;;;13.30;101334.00;;;;9956860;29;20230;-82
2024/03/22 08:50:36;;;;;;;16.70;10.80;;;;;13.70;101313.00;;;;9962204;29;20233;-79
2024/03/22 08:55:37;;;;;;;18.00;11.97;;;;;13.80;101315.00;;;;9959830;29;20347;-79
2024/03/22 09:00:39;;;;;;;21.00;13.33;;;;;13.80;101300.00;;;;9966482;29;20362;-78
2024/03/22 09:05:41;;;;;;;19.75;15.35;;;;;13.90;101300.00;;;;9966689;29;20337;-78
2024/03/22 09:10:50;;;;;;;24.55;15.43;;;;;13.90;101285.00;;;;9957154;29;20233;-79
2024/03/22 09:15:58;;;;;;;23.38;15.18;;;;;14.00;101288.00;;;;9962040;29;20276;-80
2024/03/22 09:20:59;;;;;;;22.17;16.10;;;;;13.90;101297.00;;;;9987165;29;20713;-79
2024/03/22 09:26:01;;;;;;;18.92;14.48;;;;;13.90;101293.00;;;;9974587;29;20238;-78
2024/03/22 09:31:06;;;;;;;21.90;14.77;;;;;13.80;101292.00;;;;9942975;29;20308;-80
2024/03/22 09:36:07;;;;;;;18.92;14.38;;;;;13.70;101295.00;;;;9993849;29;20257;-78
2024/03/22 09:41:08;;;;;;;24.27;15.00;;;;;13.80;101300.00;;;;9969478;29;20236;-81
2024/03/22 09:46:12;;;;;;;24.33;15.60;;;;;13.70;101302.00;;;;9966980;29;21796;-83
2024/03/22 09:51:16;;;;;;;20.60;14.53;;;;;13.80;101285.00;;;;10005074;29;20236;-78
2024/03/22 09:56:21;;;;;;;19.38;13.43;;;;;13.80;101298.00;;;;9945107;29;20691;-83
2024/03/22 10:01:23;;;;;;;19.63;13.65;;;;;13.70;101288.00;;;;9968406;29;20374;-80
2024/03/22 10:06:24;;;;;;;22.17;14.88;;;;;13.70;101291.00;;;;9961121;29;20236;-80
2024/03/22 10:11:27;;;;;;;20.83;14.70;;;;;13.90;101273.00;;;;9972737;29;20372;-80
2024/03/22 10:16:33;;;;;;;20.67;14.40;;;;;14.00;101273.00;;;;9998997;29;21010;-81
2024/03/22 10:21:34;;;;;;;19.00;14.10;;;;;13.90;101273.00;;;;9941006;29;20585;-80
2024/03/22 10:26:36;;;;;;;20.93;14.70;;;;;14.00;101263.00;;;;9949281;29;20232;-80
2024/03/22 10:31:37;;;;;;;23.40;15.80;;;;;14.00;101269.00;;;;9950876;29;20308;-80
2024/03/22 10:36:39;;;;;;;19.55;14.02;;;;;14.10;101263.00;;;;9954669;29;20245;-81
2024/03/22 10:41:41;;;;;;;20.20;14.75;;;;;14.40;101261.00;;;;9953319;29;20238;-80
2024/03/22 10:46:46;;;;;;;19.85;14.95;;;;;14.50;101263.00;;;;9963417;29;20241;-80
2024/03/22 10:51:51;;;;;;;23.10;14.93;;;;;14.50;101252.00;;;;9981110;29;20233;-80
2024/03/22 10:56:52;;;;;;;21.25;14.48;;;;;14.60;101255.00;;;;9988827;29;20328;-79
2024/03/22 11:02:02;;;;;;;19.60;15.10;;;;;14.40;101254.00;;;;9947859;29;20323;-81
2024/03/22 11:07:03;;;;;;;23.38;14.20;;;;;14.40;101252.00;;;;9975973;29;20321;-80
2024/03/22 11:12:04;;;;;;;20.55;15.38;;;;;14.20;101247.00;;;;9992825;29;20241;-81
2024/03/22 11:17:06;;;;;;;19.17;14.47;;;;;14.00;101234.00;;;;9961548;29;22343;-82
2024/03/22 11:22:08;;;;;;;21.58;16.48;;;;;14.00;101236.00;;;;9968479;29;20934;-81
2024/03/22 11:27:11;;;;;;;20.70;15.30;;;;;13.80;101236.00;;;;9964846;29;20241;-81
2024/03/22 11:32:14;;;;;;;21.05;14.63;;;;;13.70;101233.00;;;;9974309;29;20236;-82
2024/03/22 11:37:15;;;;;;;16.88;12.35;;;;;13.70;101242.00;;;;9980105;29;20349;-81
2024/03/22 11:42:17;;;;;;;18.50;11.50;;;;;13.70;101241.00;;;;9967558;29;20229;-82
2024/03/22 11:47:19;;;;;;;23.70;12.77;;;;;13.70;101231.00;;;;9962957;29;20259;-81
2024/03/22 11:52:27;;;;;;;19.27;13.27;;;;;13.70;101222.00;;;;9974578;29;20320;-81
2024/03/22 11:57:28;;;;;;;19.38;12.55;;;;;13.90;101206.00;;;;9964893;29;20714;-82
2024/03/22 12:02:31;;;;;;;16.45;11.25;;;;;14.20;101206.00;;;;9966552;29;21772;-81
2024/03/22 12:07:34;;;;;;;16.08;10.35;;;;;14.40;101193.00;;;;9992465;29;20394;-82
2024/03/22 12:12:36;;;;;;;19.27;9.80;;;;;14.20;101183.00;;;;9995623;29;20257;-81
2024/03/22 12:17:39;;;;;;;18.17;10.33;;;;;14.00;101186.00;;;;9998143;29;20241;-81
2024/03/22 12:22:41;;;;;;;21.17;10.73;;;;;13.70;101173.00;;;;9961914;29;20233;-83
2024/03/22 12:27:44;;;;;;;15.07;9.27;;;;;13.60;101182.00;;;;9956446;29;20241;-84
2024/03/22 12:32:45;;;;;;;14.05;9.20;;;;;13.50;101178.00;;;;9949766;29;20233;-83
2024/03/22 12:37:46;;;;;;;15.50;8.18;;;;;13.40;101182.00;;;;9968222;29;20249;-83
2024/03/22 12:42:48;;;;;;;18.02;9.32;;;;;13.20;101176.00;;;;9987720;29;20278;-83
2024/03/22 12:47:49;;;;;;;12.33;8.70;;;;;13.10;101172.00;;;;9989396;29;20257;-84
2024/03/22 12:52:50;;;;;;;12.70;8.20;;;;;13.20;101168.00;;;;9959272;29;20376;-84
2024/03/22 12:57:52;;;;;;;13.30;8.13;;;;;13.10;101162.00;;;;9953917;29;20710;-83
2024/03/22 13:02:53;;;;;;;19.63;8.73;;;;;13.10;101152.00;;;;9960644;29;20224;-83
2024/03/22 13:07:55;;;;;;;16.10;8.73;;;;;13.00;101143.00;;;;9956489;29;20585;-83
2024/03/22 13:12:56;;;;;;;16.63;8.83;;;;;13.00;101139.00;;;;9958947;29;20312;-84
2024/03/22 13:17:57;;;;;;;13.20;8.33;;;;;13.00;101132.00;;;;9968778;29;20245;-82
2024/03/22 13:22:59;;;;;;;18.33;9.07;;;;;13.00;101121.00;;;;9963709;29;20233;-83
2024/03/22 13:28:02;;;;;;;15.97;8.60;;;;;13.00;101113.00;;;;9969128;29;20706;-81
2024/03/22 13:33:04;;;;;;;12.20;8.93;;;;;12.90;101102.00;;;;9978003;29;20652;-79
2024/03/22 13:38:06;;;;;;;11.50;8.10;;;;;12.90;101095.00;;;;9961829;29;20264;-78
2024/03/22 13:43:07;;;;;;;11.93;8.00;;;;;12.90;101104.00;;;;9947805;29;20233;-79
2024/03/22 13:48:14;;;;;;;16.20;8.63;;;;;12.80;101094.00;;;;9959710;29;20249;-79
2024/03/22 13:53:16;;;;;;;11.20;7.50;;;;;12.70;101085.00;;;;9982188;29;20233;-80
2024/03/22 13:58:17;;;;;;;14.37;8.93;;;;;12.70;101072.00;;;;9941356;29;20234;-79
2024/03/22 14:03:35;;;;;;;14.60;7.97;;;;;12.70;101081.00;;;;10551221;27;20390;-78
2024/03/22 14:08:38;;;;;;;13.80;7.87;;;;;12.60;101067.00;;;;10450061;28;20221;-78
2024/03/22 14:13:39;;;;;;;12.70;7.47;;;;;12.60;101066.00;;;;10465925;28;20307;-78
2024/03/22 14:18:40;;;;;;;14.17;7.33;;;;;12.80;101045.00;;;;10459662;28;20239;-79
2024/03/22 14:23:41;;;;;;;14.97;6.93;;;;;12.80;101038.00;;;;10448042;28;20866;-79
2024/03/22 14:28:43;;;;;;;12.17;7.70;;;;;12.70;101025.00;;;;10457054;28;20243;-80
2024/03/22 14:33:45;;;;;;;16.20;7.80;;;;;12.60;101027.00;;;;10442076;28;20790;-78
2024/03/22 14:38:46;;;;;;;13.80;6.63;;;;;12.50;101023.00;;;;10467399;28;20713;-78
2024/03/22 14:43:47;;;;;;;14.83;7.50;;;;;12.50;101023.00;;;;10454894;28;20217;-80
2024/03/22 14:48:50;;;;;;;17.03;7.00;;;;;12.60;101013.00;;;;10477104;28;20676;-79
2024/03/22 14:53:51;;;;;;;14.37;7.23;;;;;12.70;101005.00;;;;10445831;28;20237;-77
2024/03/22 14:58:52;;;;;;;16.07;7.13;;;;;12.70;100991.00;;;;10407985;28;20368;-77
2024/03/22 15:03:53;;;;;;;13.23;7.67;;;;;12.80;100980.00;;;;10402252;28;20857;-77
2024/03/22 15:08:55;;;;;;;12.43;7.17;;;;;12.40;100983.00;;;;10425623;28;20317;-78
2024/03/22 15:13:56;;;;;;;12.07;7.57;;;;;12.20;100984.00;;;;10381769;28;20677;-80
2024/03/22 15:18:57;;;;;;;12.13;7.57;;;;;11.90;100993.00;;;;10395546;28;20321;-79
2024/03/22 15:23:59;;;;;;;10.93;7.73;;;;;11.60;101001.00;;;;10401896;28;20293;-80
2024/03/22 15:29:00;;;;;;;15.93;8.33;;;;;11.30;100996.00;;;;10400141;28;20222;-80
2024/03/22 15:34:02;;;;;;;10.63;7.83;;;;;11.30;100990.00;;;;10404216;28;20353;-81
2024/03/22 15:39:04;;;;;;;9.13;7.37;;;;;11.20;100984.00;;;;10397122;28;20302;-83
2024/03/22 15:44:05;;;;;;;9.77;7.57;;;;;11.20;100972.00;;;;10383063;28;20225;-83
2024/03/22 15:49:07;;;;;;;15.67;8.30;;;;;11.10;100966.00;;;;10424295;28;20309;-85
2024/03/22 15:54:08;;;;;;;9.50;7.77;;;;;11.00;100956.00;;;;10411867;28;20399;-86
2024/03/22 15:59:09;;;;;;;10.57;8.37;;;;;10.90;100953.00;;;;10411348;28;20222;-85
2024/03/22 16:04:10;;;;;;;10.47;9.17;;;;;10.90;100939.00;;;;10383252;28;20323;-84
2024/03/22 16:09:12;;;;;;;11.77;8.67;;;;;10.90;100951.00;;;;10378879;28;20883;-83
2024/03/22 16:14:13;;;;;;;11.67;8.93;;;;;10.80;100939.00;;;;10393480;28;20254;-84
2024/03/22 16:19:15;;;;;;;12.73;10.20;;;;;10.80;100926.00;;;;10370301;28;20242;-84
2024/03/22 16:24:19;;;;;;;13.37;9.73;;;;;10.90;100913.00;;;;10374533;28;20272;-84
2024/03/22 16:29:24;;;;;;;14.70;10.67;;;;;10.90;100913.00;;;;10384241;28;20249;-85
2024/03/22 16:34:25;;;;;;;13.67;9.53;;;;;10.80;100912.00;;;;10401032;28;20313;-85
2024/03/22 16:39:26;;;;;;;10.90;9.80;;;;;10.90;100910.00;;;;10401301;28;20256;-86
2024/03/22 16:44:27;;;;;;;9.80;8.80;;;;;10.90;100905.00;;;;10392981;28;20248;-84
2024/03/22 16:49:28;;;;;;;8.20;7.40;;;;;10.80;100887.00;;;;10379105;28;20296;-85
2024/03/22 16:54:29;;;;;;;9.40;8.03;;;;;10.60;100885.00;;;;10383992;28;20680;-85
2024/03/22 16:59:30;;;;;;;11.03;8.57;;;;;10.50;100882.00;;;;10394194;28;20256;-82
2024/03/22 17:04:31;;;;;;;8.70;7.80;;;;;10.50;100874.00;;;;10378882;28;20246;-79
2024/03/22 17:09:33;;;;;;;11.40;7.63;;;;;10.50;100868.00;;;;10377058;28;20289;-81
2024/03/22 17:14:34;;;;;;;8.63;7.73;;;;;10.40;100863.00;;;;10394602;28;20215;-79
2024/03/22 17:19:35;;;;;;;9.43;7.07;;;;;10.30;100855.00;;;;10392208;28;20222;-80
2024/03/22 17:24:36;;;;;;;9.57;8.57;;;;;10.30;100852.00;;;;10386111;28;20221;-78
2024/03/22 17:29:39;;;;;;;11.13;8.07;;;;;10.20;100856.00;;;;10375228;28;20249;-79
2024/03/22 17:34:40;;;;;;;10.13;7.73;;;;;10.10;100844.00;;;;10382142;28;20237;-80
2024/03/22 17:39:41;;;;;;;13.20;9.20;;;;;10.10;100848.00;;;;10379501;28;20695;-80
2024/03/22 17:44:42;;;;;;;12.43;8.27;;;;;10.10;100849.00;;;;10373296;28;20276;-81
2024/03/22 17:49:46;;;;;;;10.03;8.37;;;;;10.10;100839.00;;;;10379669;28;20241;-77
2024/03/22 17:54:47;;;;;;;11.60;8.47;;;;;10.00;100832.00;;;;10420488;28;20273;-78
2024/03/22 17:59:48;;;;;;;10.03;9.03;;;;;10.00;100827.00;;;;10410829;28;20965;-80
2024/03/22 18:04:49;;;;;;;11.70;8.80;;;;;10.00;100849.00;;;;10372459;28;20265;-79
2024/03/22 18:09:51;;;;;;;9.90;7.47;;;;;9.60;100850.00;;;;10403167;28;20305;-84
2024/03/22 18:14:53;;;;;;;11.53;7.40;;;;;9.20;100846.00;;;;10392388;28;20218;-84
2024/03/22 18:19:54;;;;;;;12.37;8.77;;;;;9.10;100822.00;;;;11671245;22;20238;-85
2024/03/22 18:24:55;;;;;;;13.43;9.37;;;;;9.10;100823.00;;;;11040465;22;20209;-85
2024/03/22 18:29:56;;;;;;;14.93;10.93;;;;;9.10;100824.00;;;;10362388;28;20222;-87
2024/03/22 18:34:57;;;;;;;13.77;10.93;;;;;9.10;100825.00;;;;10477909;23;20235;-85
2024/03/22 18:39:58;;;;;;;19.93;13.73;;;;;9.20;100826.00;;;;10398948;28;20242;-87
2024/03/22 18:45:12;;;;;;;24.33;13.83;;;;;9.20;100832.00;;;;11029469;22;20544;31
2024/03/22 18:50:13;;;;;;;23.80;14.53;;;;;9.10;100826.00;;;;10381228;28;20220;-86
2024/03/22 18:55:14;;;;;;;25.97;14.97;;;;;9.20;100817.00;;;;10343340;28;20234;-85
2024/03/22 19:00:15;;;;;;;24.03;15.77;;;;;9.10;100816.00;;;;10345883;28;20231;-85
2024/03/22 19:05:16;;;;;;;24.60;15.50;;;;;9.10;100809.00;;;;10335122;28;20263;-84
2024/03/22 19:10:18;;;;;;;24.67;16.33;;;;;9.10;100815.00;;;;10323665;28;20223;-86
2024/03/22 19:15:19;;;;;;;30.53;15.97;;;;;9.10;100820.00;;;;10331532;28;20278;-87
2024/03/22 19:20:20;;;;;;;30.57;17.27;;;;;9.10;100807.00;;;;10327071;28;20223;-83
2024/03/22 19:25:23;;;;;;;30.87;17.20;;;;;9.10;100810.00;;;;10326472;28;20798;-82
2024/03/22 19:30:24;;;;;;;26.60;17.83;;;;;9.10;100802.00;;;;10327783;28;20269;-81
2024/03/22 19:35:25;;;;;;;27.10;16.67;;;;;9.00;100798.00;;;;10323825;28;20216;-81
2024/03/22 19:40:26;;;;;;;27.73;17.23;;;;;9.00;100788.00;;;;10309276;28;20247;-82
2024/03/22 19:45:27;;;;;;;27.73;16.57;;;;;9.00;100788.00;;;;10312053;28;20230;-81
2024/03/22 19:50:28;;;;;;;24.43;14.53;;;;;9.00;100791.00;;;;10300966;28;20302;-81
2024/03/22 19:55:30;;;;;;;23.83;13.73;;;;;8.90;100785.00;;;;10302831;28;20234;-81
2024/03/22 20:00:31;;;;;;;23.83;14.57;;;;;9.00;100767.00;;;;10326870;28;20310;-81
2024/03/22 20:05:32;;;;;;;25.37;13.50;;;;;8.90;100771.00;;;;10302862;28;20302;-81
2024/03/22 20:10:33;;;;;;;26.83;14.67;;;;;8.80;100772.00;;;;10320461;28;20598;-81
2024/03/22 20:15:34;;;;;;;35.13;17.73;;;;;8.80;100768.00;;;;10306390;28;20238;-82
2024/03/22 20:20:35;;;;;;;28.10;15.90;;;;;8.80;100777.00;;;;10303755;28;20266;-81
2024/03/22 20:25:37;;;;;;;29.07;13.83;;;;;8.80;100768.00;;;;10312609;28;20246;-82
2024/03/22 20:30:38;;;;;;;22.77;10.90;;;;;8.60;100764.00;;;;10315226;28;21046;-77
2024/03/22 20:35:40;;;;;;;24.00;12.10;;;;;8.50;100771.00;;;;10328019;28;20729;-77
2024/03/22 20:40:41;;;;;;;26.60;11.43;;;;;8.50;100763.00;;;;10314918;28;20231;-77
2024/03/22 20:45:42;;;;;;;21.83;10.03;;;;;8.50;100752.00;;;;10286090;28;20310;-76
2024/03/22 20:50:45;;;;;;;26.87;11.23;;;;;8.50;100752.00;;;;10298329;28;20219;-78
2024/03/22 20:55:46;;;;;;;24.57;9.20;;;;;8.40;100758.00;;;;10319099;28;20231;-77
2024/03/22 21:00:47;;;;;;;24.67;11.10;;;;;8.40;100748.00;;;;10336238;28;20238;-76
2024/03/22 21:05:48;;;;;;;26.27;11.07;;;;;8.40;100749.00;;;;10329216;28;20271;-78
2024/03/22 21:10:50;;;;;;;22.97;12.27;;;;;8.40;100734.00;;;;10323654;28;20247;-77
2024/03/22 21:15:51;;;;;;;32.03;12.50;;;;;8.40;100732.00;;;;10305928;28;20223;-76
2024/03/22 21:20:52;;;;;;;26.27;12.57;;;;;8.40;100735.00;;;;10334464;28;20227;-76
2024/03/22 21:25:53;;;;;;;25.27;12.77;;;;;8.40;100737.00;;;;10320718;28;20255;-76
2024/03/22 21:30:54;;;;;;;34.53;13.83;;;;;8.40;100727.00;;;;10331572;28;20254;-77
2024/03/22 21:35:55;;;;;;;31.60;15.37;;;;;8.40;100727.00;;;;10297507;28;20303;-78
2024/03/22 21:40:56;;;;;;;26.97;14.43;;;;;8.30;100718.00;;;;10316152;28;20226;-81
2024/03/22 21:45:57;;;;;;;37.93;17.87;;;;;8.30;100706.00;;;;10318008;28;20310;-82
2024/03/22 21:51:00;;;;;;;34.87;17.30;;;;;8.30;100710.00;;;;10295878;28;20967;-82
2024/03/22 21:56:02;;;;;;;37.63;17.77;;;;;8.30;100683.00;;;;10311042;28;20318;-82
2024/03/22 22:01:03;;;;;;;41.13;19.43;;;;;8.30;100696.00;;;;10325276;28;20843;-82
2024/03/22 22:06:04;;;;;;;42.67;19.87;;;;;8.30;100677.00;;;;10300216;28;20235;-82
2024/03/22 22:11:05;;;;;;;41.80;19.53;;;;;8.30;100697.00;;;;10284837;28;20356;-83
2024/03/22 22:16:06;;;;;;;42.93;17.10;;;;;8.20;100682.00;;;;10296616;28;20286;-83
2024/03/22 22:21:07;;;;;;;44.17;19.43;;;;;8.20;100684.00;;;;10312250;28;20302;-82
2024/03/22 22:26:09;;;;;;;37.77;18.37;;;;;8.20;100680.00;;;;10305793;28;20224;-82
2024/03/22 22:31:12;;;;;;;44.17;20.10;;;;;8.10;100677.00;;;;10312007;28;20254;-82
2024/03/22 22:36:13;;;;;;;44.13;20.10;;;;;8.10;100688.00;;;;10318740;28;20230;-81
2024/03/22 22:41:14;;;;;;;31.57;17.63;;;;;8.00;100673.00;;;;10323936;28;20227;-82
2024/03/22 22:46:15;;;;;;;32.63;17.93;;;;;8.00;100667.00;;;;10323074;28;20269;-81
2024/03/22 22:51:16;;;;;;;36.63;15.93;;;;;7.90;100657.00;;;;10323373;28;20369;-83
2024/03/22 22:56:17;;;;;;;27.40;15.00;;;;;7.90;100645.00;;;;10306990;28;20231;-82
2024/03/22 23:01:19;;;;;;;25.43;13.87;;;;;7.90;100651.00;;;;10308285;28;20301;-84
2024/03/22 23:06:20;;;;;;;32.40;14.53;;;;;7.90;100647.00;;;;10313323;28;20255;-83
2024/03/22 23:11:21;;;;;;;31.33;13.77;;;;;7.90;100663.00;;;;10329310;28;20288;-83
2024/03/22 23:16:22;;;;;;;36.00;15.00;;;;;7.90;100682.00;;;;10306953;28;20270;-84
2024/03/22 23:21:23;;;;;;;8.37;4.47;;;;;7.60;100715.00;;;;10346304;28;20282;-84
2024/03/22 23:26:24;;;;;;;14.53;4.40;;;;;6.70;100702.00;;;;10340850;28;20219;-83
2024/03/22 23:31:25;;;;;;;9.80;4.97;;;;;6.50;100730.00;;;;10301303;28;20223;-82
2024/03/22 23:36:26;;;;;;;15.93;5.00;;;;;6.40;100708.00;;;;10305164;28;20976;-82
2024/03/22 23:41:28;;;;;;;10.00;5.00;;;;;6.50;100710.00;;;;10309632;28;20223;-83
2024/03/22 23:46:29;;;;;;;18.87;5.30;;;;;6.40;100691.00;;;;10351238;28;20866;-83
2024/03/22 23:51:30;;;;;;;13.57;4.73;;;;;6.50;100683.00;;;;10317664;28;20222;-83
2024/03/22 23:56:31;;;;;;;15.13;4.73;;;;;6.60;100672.00;;;;10293109;28;20563;-81
